createdAt,value
2023-04-11T08:14:47.310Z,100420.69
2023-04-11T08:17:50.059Z,100420.69
2023-04-11T08:20:52.855Z,100410.56
2023-04-11T08:23:55.447Z,100409.03
2023-04-11T08:26:57.835Z,100406.16
2023-04-11T08:30:00.316Z,100401.75
2023-04-11T08:33:02.432Z,100403.66
2023-04-11T08:36:09.680Z,100392.16
2023-04-11T08:39:11.932Z,100385.03
2023-04-11T08:42:23.227Z,100384.34
2023-04-11T08:45:25.573Z,100374.00
2023-04-11T08:48:28.331Z,100360.94
2023-04-11T08:51:31.469Z,100361.12
2023-04-11T08:54:33.858Z,100350.31
2023-04-11T08:57:38.158Z,100340.62
2023-04-11T09:00:40.648Z,100340.81
2023-04-11T09:04:02.483Z,100335.22
2023-04-11T09:07:05.704Z,100324.84
2023-04-11T09:10:20.902Z,100332.28
2023-04-11T09:13:24.347Z,100330.47
2023-04-11T09:16:27.034Z,100330.62
2023-04-11T09:19:31.791Z,100330.00
2023-04-11T09:22:37.044Z,100330.84
2023-04-11T09:25:45.572Z,100320.53
2023-04-11T09:28:54.897Z,100302.69
2023-04-11T09:31:57.406Z,100301.91
2023-04-11T09:35:18.528Z,100300.06
2023-04-11T09:38:28.038Z,100292.47
2023-04-11T09:41:32.312Z,100294.59
2023-04-11T09:44:37.437Z,100283.12
2023-04-11T09:47:39.643Z,100286.56
2023-04-11T09:50:43.076Z,100283.88
2023-04-11T09:53:45.570Z,100289.94
2023-04-11T09:56:48.995Z,100288.81
2023-04-11T09:59:52.853Z,100274.56
2023-04-11T10:02:56.335Z,100273.16
2023-04-11T10:05:58.898Z,100263.59
2023-04-11T10:09:12.253Z,100256.16
2023-04-11T10:12:31.554Z,100255.06
2023-04-11T10:15:33.694Z,100251.59
2023-04-11T10:18:37.072Z,100250.72
2023-04-11T10:21:40.895Z,100251.13
2023-04-11T10:25:16.752Z,100248.44
2023-04-11T10:28:30.846Z,100237.78
2023-04-11T10:32:05.756Z,100217.94
2023-04-11T10:35:16.853Z,100215.38
2023-04-11T10:38:48.250Z,100219.22
2023-04-11T10:41:50.488Z,100216.19
2023-04-11T10:45:14.508Z,100205.38
2023-04-11T10:48:16.647Z,100199.78
2023-04-11T10:51:30.123Z,100196.13
2023-04-11T10:54:32.256Z,100188.31
2023-04-11T10:58:03.518Z,100186.25
2023-04-11T11:01:21.288Z,100183.72
2023-04-11T11:04:36.594Z,100179.41
2023-04-11T11:07:39.012Z,100173.84
2023-04-11T11:10:43.503Z,100165.03
2023-04-11T11:13:53.270Z,100163.56
2023-04-11T11:16:55.896Z,100158.75
2023-04-11T11:19:58.231Z,100158.03
2023-04-11T11:23:02.707Z,100147.41
2023-04-11T11:26:05.016Z,100143.75
2023-04-11T11:29:08.334Z,100131.34
2023-04-11T11:32:21.277Z,100135.97
2023-04-11T11:35:24.727Z,100136.91
2023-04-11T11:38:28.739Z,100131.50
2023-04-11T11:41:33.518Z,100134.00
2023-04-11T11:44:35.767Z,100124.56
2023-04-11T11:47:56.633Z,100124.22
2023-04-11T11:50:58.926Z,100118.69
2023-04-11T11:54:11.248Z,100112.47
2023-04-11T11:57:22.648Z,100110.47
2023-04-11T12:00:27.081Z,100110.72
2023-04-11T12:03:29.671Z,100120.75
2023-04-11T12:06:32.386Z,100113.88
2023-04-11T12:09:34.771Z,100106.44
2023-04-11T12:12:41.909Z,100112.63
2023-04-11T12:15:46.540Z,100101.50
2023-04-11T12:18:48.656Z,100100.63
2023-04-11T12:21:51.522Z,100102.63
2023-04-11T12:25:06.385Z,100102.75
2023-04-11T12:28:09.620Z,100113.41
2023-04-11T12:31:12.474Z,100103.31
2023-04-11T12:34:14.971Z,100103.44
2023-04-11T12:37:17.138Z,100096.72
2023-04-11T12:40:19.763Z,100098.59
2023-04-11T12:43:21.935Z,100096.62
2023-04-11T12:46:24.469Z,100084.66
2023-04-11T12:49:28.189Z,100084.63
2023-04-11T12:52:30.945Z,100077.59
2023-04-11T12:55:34.883Z,100076.62
2023-04-11T12:58:37.339Z,100073.25
2023-04-11T13:01:39.517Z,100068.03
2023-04-11T13:04:42.092Z,100062.16
2023-04-11T13:07:45.421Z,100060.91
2023-04-11T13:10:48.155Z,100051.25
2023-04-11T13:13:51.596Z,100050.31
2023-04-11T13:16:54.142Z,100038.56
2023-04-11T13:19:56.264Z,100039.25
2023-04-11T13:22:58.673Z,100026.28
2023-04-11T13:26:01.079Z,100028.59
2023-04-11T13:29:03.578Z,100019.69
2023-04-11T13:32:06.606Z,100019.31
2023-04-11T13:35:09.343Z,100015.81
2023-04-11T13:38:12.537Z,100012.63
2023-04-11T13:41:15.078Z,100007.22
2023-04-11T13:44:17.695Z,100013.66
2023-04-11T13:47:20.211Z,100005.53
2023-04-11T13:50:22.368Z,100000.13
2023-04-11T13:53:24.743Z,99996.09
2023-04-11T13:56:27.193Z,100002.00
2023-04-11T13:59:29.540Z,99999.22
2023-04-11T14:02:31.737Z,99994.16
2023-04-11T14:05:35.560Z,99996.06
2023-04-11T14:08:37.723Z,100000.00
2023-04-11T14:11:40.694Z,99998.78
2023-04-11T14:14:42.775Z,99995.47
2023-04-11T14:17:46.840Z,99995.19
